sensor_id;sensor_type;location;lat;lon;timestamp;P1;durP1;ratioP1;P2;durP2;ratioP2
67986;SDS011;54767;53.800;15.956;2023-02-04T00:01:34;2.80;;;1.60;;
67986;SDS011;54767;53.800;15.956;2023-02-04T00:04:03;3.60;;;1.50;;
67986;SDS011;54767;53.800;15.956;2023-02-04T00:06:31;3.30;;;2.10;;
67986;SDS011;54767;53.800;15.956;2023-02-04T00:08:59;3.40;;;2.20;;
67986;SDS011;54767;53.800;15.956;2023-02-04T00:11:27;2.70;;;1.90;;
67986;SDS011;54767;53.800;15.956;2023-02-04T00:13:56;2.20;;;1.70;;
67986;SDS011;54767;53.800;15.956;2023-02-04T00:16:24;1.90;;;1.70;;
67986;SDS011;54767;53.800;15.956;2023-02-04T00:18:53;2.80;;;1.50;;
67986;SDS011;54767;53.800;15.956;2023-02-04T00:21:21;3.00;;;1.50;;
67986;SDS011;54767;53.800;15.956;2023-02-04T00:23:49;2.30;;;1.50;;
67986;SDS011;54767;53.800;15.956;2023-02-04T00:26:18;2.30;;;1.40;;
67986;SDS011;54767;53.800;15.956;2023-02-04T00:28:46;2.20;;;1.50;;
67986;SDS011;54767;53.800;15.956;2023-02-04T00:31:14;1.70;;;1.60;;
67986;SDS011;54767;53.800;15.956;2023-02-04T00:33:43;4.20;;;1.50;;
67986;SDS011;54767;53.800;15.956;2023-02-04T00:36:11;1.60;;;1.50;;
67986;SDS011;54767;53.800;15.956;2023-02-04T00:38:39;2.40;;;1.70;;
67986;SDS011;54767;53.800;15.956;2023-02-04T00:41:08;3.20;;;1.60;;
67986;SDS011;54767;53.800;15.956;2023-02-04T00:43:36;2.00;;;1.30;;
67986;SDS011;54767;53.800;15.956;2023-02-04T00:46:04;2.70;;;1.30;;
67986;SDS011;54767;53.800;15.956;2023-02-04T00:48:32;3.00;;;1.80;;
67986;SDS011;54767;53.800;15.956;2023-02-04T00:51:02;2.20;;;1.50;;
67986;SDS011;54767;53.800;15.956;2023-02-04T00:53:30;2.10;;;1.30;;
67986;SDS011;54767;53.800;15.956;2023-02-04T00:55:59;1.70;;;1.30;;
67986;SDS011;54767;53.800;15.956;2023-02-04T00:58:27;2.10;;;1.60;;
67986;SDS011;54767;53.800;15.956;2023-02-04T01:00:55;4.20;;;1.60;;
67986;SDS011;54767;53.800;15.956;2023-02-04T01:03:24;2.20;;;1.50;;
67986;SDS011;54767;53.800;15.956;2023-02-04T01:05:52;3.80;;;1.90;;
67986;SDS011;54767;53.800;15.956;2023-02-04T01:08:22;3.10;;;1.80;;
67986;SDS011;54767;53.800;15.956;2023-02-04T01:10:50;1.80;;;1.50;;
67986;SDS011;54767;53.800;15.956;2023-02-04T01:13:18;2.50;;;1.60;;
67986;SDS011;54767;53.800;15.956;2023-02-04T01:15:46;2.30;;;1.70;;
67986;SDS011;54767;53.800;15.956;2023-02-04T01:18:15;3.30;;;1.90;;
67986;SDS011;54767;53.800;15.956;2023-02-04T01:20:43;4.40;;;1.80;;
67986;SDS011;54767;53.800;15.956;2023-02-04T01:23:11;3.20;;;1.90;;
67986;SDS011;54767;53.800;15.956;2023-02-04T01:25:40;1.80;;;1.50;;
67986;SDS011;54767;53.800;15.956;2023-02-04T01:28:08;4.00;;;1.70;;
67986;SDS011;54767;53.800;15.956;2023-02-04T01:30:36;3.20;;;1.70;;
67986;SDS011;54767;53.800;15.956;2023-02-04T01:33:05;2.50;;;1.60;;
67986;SDS011;54767;53.800;15.956;2023-02-04T01:35:33;2.80;;;1.70;;
67986;SDS011;54767;53.800;15.956;2023-02-04T01:38:01;2.70;;;1.50;;
67986;SDS011;54767;53.800;15.956;2023-02-04T01:40:30;2.10;;;1.50;;
67986;SDS011;54767;53.800;15.956;2023-02-04T01:42:59;3.80;;;1.70;;
67986;SDS011;54767;53.800;15.956;2023-02-04T01:45:27;3.70;;;1.90;;
67986;SDS011;54767;53.800;15.956;2023-02-04T01:47:57;1.60;;;1.30;;
67986;SDS011;54767;53.800;15.956;2023-02-04T01:50:27;2.50;;;1.40;;
67986;SDS011;54767;53.800;15.956;2023-02-04T01:52:56;4.10;;;2.00;;
67986;SDS011;54767;53.800;15.956;2023-02-04T01:55:26;2.40;;;1.50;;
67986;SDS011;54767;53.800;15.956;2023-02-04T01:57:56;2.20;;;1.70;;
67986;SDS011;54767;53.800;15.956;2023-02-04T02:00:30;1.60;;;1.40;;
67986;SDS011;54767;53.800;15.956;2023-02-04T02:03:00;3.80;;;1.80;;
67986;SDS011;54767;53.800;15.956;2023-02-04T02:08:07;5.70;;;2.10;;
67986;SDS011;54767;53.800;15.956;2023-02-04T02:10:38;4.20;;;1.80;;
67986;SDS011;54767;53.800;15.956;2023-02-04T02:13:10;3.00;;;1.50;;
67986;SDS011;54767;53.800;15.956;2023-02-04T02:15:40;2.90;;;1.40;;
67986;SDS011;54767;53.800;15.956;2023-02-04T02:18:09;1.30;;;1.00;;
67986;SDS011;54767;53.800;15.956;2023-02-04T02:20:39;3.80;;;1.60;;
67986;SDS011;54767;53.800;15.956;2023-02-04T02:23:19;3.70;;;1.50;;
67986;SDS011;54767;53.800;15.956;2023-02-04T02:25:51;3.60;;;1.20;;
67986;SDS011;54767;53.800;15.956;2023-02-04T02:28:20;2.50;;;1.30;;
67986;SDS011;54767;53.800;15.956;2023-02-04T02:30:51;2.70;;;0.90;;
67986;SDS011;54767;53.800;15.956;2023-02-04T02:33:19;3.00;;;1.20;;
67986;SDS011;54767;53.800;15.956;2023-02-04T02:35:48;1.30;;;1.10;;
67986;SDS011;54767;53.800;15.956;2023-02-04T02:38:17;3.00;;;0.90;;
67986;SDS011;54767;53.800;15.956;2023-02-04T02:40:47;3.80;;;1.30;;
67986;SDS011;54767;53.800;15.956;2023-02-04T02:43:16;1.10;;;1.00;;
67986;SDS011;54767;53.800;15.956;2023-02-04T02:45:49;2.30;;;1.20;;
67986;SDS011;54767;53.800;15.956;2023-02-04T02:48:18;2.50;;;1.20;;
67986;SDS011;54767;53.800;15.956;2023-02-04T02:50:47;3.30;;;1.40;;
67986;SDS011;54767;53.800;15.956;2023-02-04T02:53:17;2.90;;;1.30;;
67986;SDS011;54767;53.800;15.956;2023-02-04T02:55:47;1.30;;;1.00;;
67986;SDS011;54767;53.800;15.956;2023-02-04T03:00:53;3.50;;;1.30;;
67986;SDS011;54767;53.800;15.956;2023-02-04T03:03:26;1.80;;;0.80;;
67986;SDS011;54767;53.800;15.956;2023-02-04T03:06:04;1.00;;;0.80;;
67986;SDS011;54767;53.800;15.956;2023-02-04T03:08:40;3.60;;;1.20;;
67986;SDS011;54767;53.800;15.956;2023-02-04T03:11:10;2.30;;;1.20;;
67986;SDS011;54767;53.800;15.956;2023-02-04T03:13:39;2.20;;;1.30;;
67986;SDS011;54767;53.800;15.956;2023-02-04T03:16:08;2.50;;;1.10;;
67986;SDS011;54767;53.800;15.956;2023-02-04T03:18:36;3.30;;;1.20;;
67986;SDS011;54767;53.800;15.956;2023-02-04T03:21:06;4.20;;;1.10;;
67986;SDS011;54767;53.800;15.956;2023-02-04T03:23:35;1.40;;;1.10;;
67986;SDS011;54767;53.800;15.956;2023-02-04T03:26:04;3.20;;;1.00;;
67986;SDS011;54767;53.800;15.956;2023-02-04T03:28:37;1.90;;;0.90;;
67986;SDS011;54767;53.800;15.956;2023-02-04T03:31:07;1.30;;;1.00;;
67986;SDS011;54767;53.800;15.956;2023-02-04T03:33:36;2.30;;;0.90;;
67986;SDS011;54767;53.800;15.956;2023-02-04T03:36:04;3.20;;;1.20;;
67986;SDS011;54767;53.800;15.956;2023-02-04T03:38:33;2.40;;;1.20;;
67986;SDS011;54767;53.800;15.956;2023-02-04T03:41:01;1.20;;;1.00;;
67986;SDS011;54767;53.800;15.956;2023-02-04T03:43:30;1.80;;;0.90;;
67986;SDS011;54767;53.800;15.956;2023-02-04T03:46:00;1.80;;;1.20;;
67986;SDS011;54767;53.800;15.956;2023-02-04T03:48:29;1.80;;;1.00;;
67986;SDS011;54767;53.800;15.956;2023-02-04T03:50:57;1.20;;;1.00;;
67986;SDS011;54767;53.800;15.956;2023-02-04T03:53:26;2.40;;;0.80;;
67986;SDS011;54767;53.800;15.956;2023-02-04T03:55:54;2.60;;;1.20;;
67986;SDS011;54767;53.800;15.956;2023-02-04T03:58:23;2.60;;;0.80;;
67986;SDS011;54767;53.800;15.956;2023-02-04T04:00:51;1.20;;;0.80;;
67986;SDS011;54767;53.800;15.956;2023-02-04T04:03:19;2.10;;;0.70;;
67986;SDS011;54767;53.800;15.956;2023-02-04T04:05:48;0.40;;;0.40;;
67986;SDS011;54767;53.800;15.956;2023-02-04T04:08:16;0.60;;;0.60;;
67986;SDS011;54767;53.800;15.956;2023-02-04T04:10:44;1.20;;;0.60;;
67986;SDS011;54767;53.800;15.956;2023-02-04T04:13:13;2.30;;;0.90;;
67986;SDS011;54767;53.800;15.956;2023-02-04T04:15:41;2.70;;;0.70;;
67986;SDS011;54767;53.800;15.956;2023-02-04T04:18:10;2.50;;;0.90;;
67986;SDS011;54767;53.800;15.956;2023-02-04T04:20:38;1.30;;;0.70;;
67986;SDS011;54767;53.800;15.956;2023-02-04T04:23:06;2.20;;;0.80;;
67986;SDS011;54767;53.800;15.956;2023-02-04T04:25:34;1.00;;;0.80;;
67986;SDS011;54767;53.800;15.956;2023-02-04T04:28:03;0.90;;;0.50;;
67986;SDS011;54767;53.800;15.956;2023-02-04T04:30:31;0.60;;;0.50;;
67986;SDS011;54767;53.800;15.956;2023-02-04T04:33:00;1.80;;;0.70;;
67986;SDS011;54767;53.800;15.956;2023-02-04T04:35:28;0.90;;;0.60;;
67986;SDS011;54767;53.800;15.956;2023-02-04T04:37:56;1.40;;;0.60;;
67986;SDS011;54767;53.800;15.956;2023-02-04T04:40:25;1.30;;;0.50;;
67986;SDS011;54767;53.800;15.956;2023-02-04T04:42:53;0.80;;;0.60;;
67986;SDS011;54767;53.800;15.956;2023-02-04T04:45:21;1.20;;;0.80;;
67986;SDS011;54767;53.800;15.956;2023-02-04T04:47:50;0.70;;;0.50;;
67986;SDS011;54767;53.800;15.956;2023-02-04T04:50:18;0.60;;;0.60;;
67986;SDS011;54767;53.800;15.956;2023-02-04T04:52:46;0.20;;;0.20;;
67986;SDS011;54767;53.800;15.956;2023-02-04T04:55:15;0.40;;;0.20;;
67986;SDS011;54767;53.800;15.956;2023-02-04T04:57:43;2.40;;;0.70;;
67986;SDS011;54767;53.800;15.956;2023-02-04T05:00:15;2.40;;;0.70;;
67986;SDS011;54767;53.800;15.956;2023-02-04T05:02:45;0.50;;;0.40;;
67986;SDS011;54767;53.800;15.956;2023-02-04T05:05:14;0.40;;;0.40;;
67986;SDS011;54767;53.800;15.956;2023-02-04T05:07:42;3.10;;;0.90;;
67986;SDS011;54767;53.800;15.956;2023-02-04T05:10:10;1.50;;;0.70;;
67986;SDS011;54767;53.800;15.956;2023-02-04T05:12:39;1.80;;;0.70;;
67986;SDS011;54767;53.800;15.956;2023-02-04T05:15:07;2.60;;;0.60;;
67986;SDS011;54767;53.800;15.956;2023-02-04T05:17:36;2.50;;;0.70;;
67986;SDS011;54767;53.800;15.956;2023-02-04T05:20:05;1.60;;;0.60;;
67986;SDS011;54767;53.800;15.956;2023-02-04T05:22:33;2.20;;;1.10;;
67986;SDS011;54767;53.800;15.956;2023-02-04T05:25:02;3.10;;;0.90;;
67986;SDS011;54767;53.800;15.956;2023-02-04T05:27:30;2.80;;;1.10;;
67986;SDS011;54767;53.800;15.956;2023-02-04T05:29:59;2.20;;;1.00;;
67986;SDS011;54767;53.800;15.956;2023-02-04T05:32:27;2.90;;;1.00;;
67986;SDS011;54767;53.800;15.956;2023-02-04T05:34:55;1.40;;;0.90;;
67986;SDS011;54767;53.800;15.956;2023-02-04T05:37:23;2.30;;;0.90;;
67986;SDS011;54767;53.800;15.956;2023-02-04T05:39:52;1.90;;;1.00;;
67986;SDS011;54767;53.800;15.956;2023-02-04T05:42:20;4.60;;;0.90;;
67986;SDS011;54767;53.800;15.956;2023-02-04T05:44:48;3.90;;;1.50;;
67986;SDS011;54767;53.800;15.956;2023-02-04T05:47:16;1.30;;;1.00;;
67986;SDS011;54767;53.800;15.956;2023-02-04T05:49:47;2.30;;;1.00;;
67986;SDS011;54767;53.800;15.956;2023-02-04T05:52:15;2.30;;;1.20;;
67986;SDS011;54767;53.800;15.956;2023-02-04T05:54:43;2.40;;;1.00;;
67986;SDS011;54767;53.800;15.956;2023-02-04T05:57:11;1.70;;;0.90;;
67986;SDS011;54767;53.800;15.956;2023-02-04T05:59:40;1.10;;;0.60;;
67986;SDS011;54767;53.800;15.956;2023-02-04T06:02:08;3.80;;;1.40;;
67986;SDS011;54767;53.800;15.956;2023-02-04T06:04:36;3.80;;;3.10;;
67986;SDS011;54767;53.800;15.956;2023-02-04T06:07:05;4.00;;;2.80;;
67986;SDS011;54767;53.800;15.956;2023-02-04T06:09:33;4.60;;;3.10;;
67986;SDS011;54767;53.800;15.956;2023-02-04T06:12:01;8.40;;;4.10;;
67986;SDS011;54767;53.800;15.956;2023-02-04T06:14:30;4.50;;;2.00;;
67986;SDS011;54767;53.800;15.956;2023-02-04T06:16:58;2.60;;;1.50;;
67986;SDS011;54767;53.800;15.956;2023-02-04T06:19:26;3.40;;;1.20;;
67986;SDS011;54767;53.800;15.956;2023-02-04T06:21:55;2.60;;;1.20;;
67986;SDS011;54767;53.800;15.956;2023-02-04T06:24:23;11.30;;;5.50;;
67986;SDS011;54767;53.800;15.956;2023-02-04T06:26:51;2.80;;;1.80;;
67986;SDS011;54767;53.800;15.956;2023-02-04T06:29:19;2.70;;;1.70;;
67986;SDS011;54767;53.800;15.956;2023-02-04T06:31:48;3.20;;;2.40;;
67986;SDS011;54767;53.800;15.956;2023-02-04T06:34:16;4.20;;;1.80;;
67986;SDS011;54767;53.800;15.956;2023-02-04T06:36:44;2.60;;;1.80;;
67986;SDS011;54767;53.800;15.956;2023-02-04T06:39:13;1.90;;;1.10;;
67986;SDS011;54767;53.800;15.956;2023-02-04T06:41:41;3.00;;;1.60;;
67986;SDS011;54767;53.800;15.956;2023-02-04T06:44:09;2.40;;;1.60;;
67986;SDS011;54767;53.800;15.956;2023-02-04T06:46:37;4.70;;;2.20;;
67986;SDS011;54767;53.800;15.956;2023-02-04T06:49:06;4.00;;;1.60;;
67986;SDS011;54767;53.800;15.956;2023-02-04T06:51:34;2.80;;;1.70;;
67986;SDS011;54767;53.800;15.956;2023-02-04T06:54:02;6.20;;;2.30;;
67986;SDS011;54767;53.800;15.956;2023-02-04T06:56:30;4.40;;;1.70;;
67986;SDS011;54767;53.800;15.956;2023-02-04T06:58:59;3.30;;;1.00;;
67986;SDS011;54767;53.800;15.956;2023-02-04T07:01:30;9.70;;;6.40;;
67986;SDS011;54767;53.800;15.956;2023-02-04T07:03:58;6.50;;;4.90;;
67986;SDS011;54767;53.800;15.956;2023-02-04T07:06:27;4.90;;;3.10;;
67986;SDS011;54767;53.800;15.956;2023-02-04T07:08:55;15.30;;;10.30;;
67986;SDS011;54767;53.800;15.956;2023-02-04T07:11:23;7.50;;;4.70;;
67986;SDS011;54767;53.800;15.956;2023-02-04T07:13:52;11.00;;;6.40;;
67986;SDS011;54767;53.800;15.956;2023-02-04T07:16:20;7.00;;;4.20;;
67986;SDS011;54767;53.800;15.956;2023-02-04T07:18:48;8.50;;;5.60;;
67986;SDS011;54767;53.800;15.956;2023-02-04T07:21:16;9.50;;;4.40;;
67986;SDS011;54767;53.800;15.956;2023-02-04T07:23:44;12.40;;;6.00;;
67986;SDS011;54767;53.800;15.956;2023-02-04T07:26:13;18.90;;;10.20;;
67986;SDS011;54767;53.800;15.956;2023-02-04T07:28:41;11.10;;;5.70;;
67986;SDS011;54767;53.800;15.956;2023-02-04T07:31:10;19.60;;;8.30;;
67986;SDS011;54767;53.800;15.956;2023-02-04T07:33:38;15.20;;;6.70;;
67986;SDS011;54767;53.800;15.956;2023-02-04T07:36:07;33.80;;;13.50;;
67986;SDS011;54767;53.800;15.956;2023-02-04T07:38:35;32.70;;;13.70;;
67986;SDS011;54767;53.800;15.956;2023-02-04T07:41:03;45.40;;;19.00;;
67986;SDS011;54767;53.800;15.956;2023-02-04T07:43:31;43.20;;;16.90;;
67986;SDS011;54767;53.800;15.956;2023-02-04T07:46:00;26.10;;;9.90;;
67986;SDS011;54767;53.800;15.956;2023-02-04T07:48:28;31.20;;;13.60;;
67986;SDS011;54767;53.800;15.956;2023-02-04T07:50:57;35.20;;;16.30;;
67986;SDS011;54767;53.800;15.956;2023-02-04T07:53:25;9.70;;;4.50;;
67986;SDS011;54767;53.800;15.956;2023-02-04T07:55:53;4.40;;;3.30;;
67986;SDS011;54767;53.800;15.956;2023-02-04T07:58:22;7.20;;;2.60;;
67986;SDS011;54767;53.800;15.956;2023-02-04T08:00:50;3.10;;;2.80;;
67986;SDS011;54767;53.800;15.956;2023-02-04T08:03:18;2.90;;;2.40;;
67986;SDS011;54767;53.800;15.956;2023-02-04T08:05:47;3.40;;;2.30;;
67986;SDS011;54767;53.800;15.956;2023-02-04T08:08:15;3.50;;;2.50;;
67986;SDS011;54767;53.800;15.956;2023-02-04T08:10:43;5.50;;;2.50;;
67986;SDS011;54767;53.800;15.956;2023-02-04T08:13:11;4.70;;;1.80;;
67986;SDS011;54767;53.800;15.956;2023-02-04T08:15:40;2.50;;;1.80;;
67986;SDS011;54767;53.800;15.956;2023-02-04T08:18:08;3.00;;;1.90;;
67986;SDS011;54767;53.800;15.956;2023-02-04T08:20:37;2.40;;;2.00;;
67986;SDS011;54767;53.800;15.956;2023-02-04T08:23:05;1.80;;;1.70;;
67986;SDS011;54767;53.800;15.956;2023-02-04T08:25:33;4.00;;;1.70;;
67986;SDS011;54767;53.800;15.956;2023-02-04T08:28:03;5.10;;;2.30;;
67986;SDS011;54767;53.800;15.956;2023-02-04T08:30:31;3.00;;;1.90;;
67986;SDS011;54767;53.800;15.956;2023-02-04T08:33:00;3.00;;;1.70;;
67986;SDS011;54767;53.800;15.956;2023-02-04T08:35:28;3.60;;;2.90;;
67986;SDS011;54767;53.800;15.956;2023-02-04T08:37:57;13.50;;;5.90;;
67986;SDS011;54767;53.800;15.956;2023-02-04T08:40:25;39.80;;;15.80;;
67986;SDS011;54767;53.800;15.956;2023-02-04T08:42:53;35.70;;;15.60;;
67986;SDS011;54767;53.800;15.956;2023-02-04T08:45:22;35.00;;;13.80;;
67986;SDS011;54767;53.800;15.956;2023-02-04T08:47:50;38.90;;;15.80;;
67986;SDS011;54767;53.800;15.956;2023-02-04T08:50:18;41.10;;;14.30;;
67986;SDS011;54767;53.800;15.956;2023-02-04T08:52:46;40.60;;;16.90;;
67986;SDS011;54767;53.800;15.956;2023-02-04T08:55:15;69.40;;;25.70;;
67986;SDS011;54767;53.800;15.956;2023-02-04T08:57:43;54.00;;;26.40;;
67986;SDS011;54767;53.800;15.956;2023-02-04T09:00:12;28.10;;;14.10;;
67986;SDS011;54767;53.800;15.956;2023-02-04T09:02:40;11.60;;;6.30;;
67986;SDS011;54767;53.800;15.956;2023-02-04T09:05:09;7.70;;;5.90;;
67986;SDS011;54767;53.800;15.956;2023-02-04T09:07:38;3.70;;;2.40;;
67986;SDS011;54767;53.800;15.956;2023-02-04T09:10:06;2.60;;;2.20;;
67986;SDS011;54767;53.800;15.956;2023-02-04T09:12:34;2.60;;;2.40;;
67986;SDS011;54767;53.800;15.956;2023-02-04T09:15:03;2.40;;;1.70;;
67986;SDS011;54767;53.800;15.956;2023-02-04T09:17:35;26.90;;;15.50;;
67986;SDS011;54767;53.800;15.956;2023-02-04T09:20:04;23.10;;;9.50;;
67986;SDS011;54767;53.800;15.956;2023-02-04T09:22:33;123.10;;;36.30;;
67986;SDS011;54767;53.800;15.956;2023-02-04T09:27:31;40.00;;;15.70;;
67986;SDS011;54767;53.800;15.956;2023-02-04T09:30:00;102.00;;;37.40;;
67986;SDS011;54767;53.800;15.956;2023-02-04T09:32:28;194.10;;;71.80;;
67986;SDS011;54767;53.800;15.956;2023-02-04T09:34:56;46.20;;;23.60;;
67986;SDS011;54767;53.800;15.956;2023-02-04T09:37:24;13.40;;;7.70;;
67986;SDS011;54767;53.800;15.956;2023-02-04T09:39:54;4.00;;;2.30;;
67986;SDS011;54767;53.800;15.956;2023-02-04T09:42:22;4.60;;;1.70;;
67986;SDS011;54767;53.800;15.956;2023-02-04T09:44:53;4.30;;;2.30;;
67986;SDS011;54767;53.800;15.956;2023-02-04T09:47:22;5.00;;;2.00;;
67986;SDS011;54767;53.800;15.956;2023-02-04T09:49:52;2.40;;;1.60;;
67986;SDS011;54767;53.800;15.956;2023-02-04T09:52:20;2.70;;;2.30;;
67986;SDS011;54767;53.800;15.956;2023-02-04T09:54:54;1.70;;;1.60;;
67986;SDS011;54767;53.800;15.956;2023-02-04T09:57:22;2.30;;;1.70;;
67986;SDS011;54767;53.800;15.956;2023-02-04T09:59:50;3.80;;;1.90;;
67986;SDS011;54767;53.800;15.956;2023-02-04T10:04:54;3.50;;;1.90;;
67986;SDS011;54767;53.800;15.956;2023-02-04T10:07:24;1.00;;;1.00;;
67986;SDS011;54767;53.800;15.956;2023-02-04T10:09:54;2.00;;;1.40;;
67986;SDS011;54767;53.800;15.956;2023-02-04T10:12:23;1.70;;;1.20;;
67986;SDS011;54767;53.800;15.956;2023-02-04T10:14:51;2.20;;;1.40;;
67986;SDS011;54767;53.800;15.956;2023-02-04T10:17:20;1.60;;;1.30;;
67986;SDS011;54767;53.800;15.956;2023-02-04T10:19:49;4.10;;;1.80;;
67986;SDS011;54767;53.800;15.956;2023-02-04T10:22:18;1.60;;;1.10;;
67986;SDS011;54767;53.800;15.956;2023-02-04T10:24:49;6.20;;;2.60;;
67986;SDS011;54767;53.800;15.956;2023-02-04T10:27:17;9.40;;;4.90;;
67986;SDS011;54767;53.800;15.956;2023-02-04T10:29:55;19.40;;;7.90;;
67986;SDS011;54767;53.800;15.956;2023-02-04T10:32:26;15.20;;;6.20;;
67986;SDS011;54767;53.800;15.956;2023-02-04T10:34:59;14.50;;;5.20;;
67986;SDS011;54767;53.800;15.956;2023-02-04T10:37:29;21.30;;;7.80;;
67986;SDS011;54767;53.800;15.956;2023-02-04T10:40:00;6.40;;;3.40;;
67986;SDS011;54767;53.800;15.956;2023-02-04T10:42:28;14.40;;;5.50;;
67986;SDS011;54767;53.800;15.956;2023-02-04T10:44:58;65.60;;;30.60;;
67986;SDS011;54767;53.800;15.956;2023-02-04T10:47:27;57.40;;;29.80;;
67986;SDS011;54767;53.800;15.956;2023-02-04T10:52:46;9.80;;;5.80;;
67986;SDS011;54767;53.800;15.956;2023-02-04T10:55:20;7.40;;;4.10;;
67986;SDS011;54767;53.800;15.956;2023-02-04T10:57:52;4.90;;;3.70;;
67986;SDS011;54767;53.800;15.956;2023-02-04T11:00:22;4.70;;;3.80;;
67986;SDS011;54767;53.800;15.956;2023-02-04T11:05:25;1.90;;;1.70;;
67986;SDS011;54767;53.800;15.956;2023-02-04T11:08:00;4.20;;;2.00;;
67986;SDS011;54767;53.800;15.956;2023-02-04T11:10:30;2.60;;;2.40;;
67986;SDS011;54767;53.800;15.956;2023-02-04T11:13:03;5.20;;;3.10;;
67986;SDS011;54767;53.800;15.956;2023-02-04T11:18:10;3.00;;;2.20;;
67986;SDS011;54767;53.800;15.956;2023-02-04T11:20:48;5.20;;;2.90;;
67986;SDS011;54767;53.800;15.956;2023-02-04T11:26:03;4.50;;;4.10;;
67986;SDS011;54767;53.800;15.956;2023-02-04T11:28:48;7.10;;;6.40;;
67986;SDS011;54767;53.800;15.956;2023-02-04T11:37:02;6.60;;;5.90;;
67986;SDS011;54767;53.800;15.956;2023-02-04T11:39:42;5.80;;;4.50;;
67986;SDS011;54767;53.800;15.956;2023-02-04T11:45:07;11.60;;;6.60;;
67986;SDS011;54767;53.800;15.956;2023-02-04T11:47:47;14.60;;;9.80;;
67986;SDS011;54767;53.800;15.956;2023-02-04T11:50:26;16.10;;;11.00;;
67986;SDS011;54767;53.800;15.956;2023-02-04T11:52:58;7.50;;;4.90;;
67986;SDS011;54767;53.800;15.956;2023-02-04T11:55:29;7.00;;;5.20;;
67986;SDS011;54767;53.800;15.956;2023-02-04T11:58:00;3.40;;;2.50;;
67986;SDS011;54767;53.800;15.956;2023-02-04T12:00:29;1.60;;;1.50;;
67986;SDS011;54767;53.800;15.956;2023-02-04T12:03:03;3.50;;;2.30;;
67986;SDS011;54767;53.800;15.956;2023-02-04T12:05:47;2.00;;;1.80;;
67986;SDS011;54767;53.800;15.956;2023-02-04T12:11:00;2.80;;;2.60;;
67986;SDS011;54767;53.800;15.956;2023-02-04T12:13:33;2.50;;;1.50;;
67986;SDS011;54767;53.800;15.956;2023-02-04T12:16:12;1.90;;;1.80;;
67986;SDS011;54767;53.800;15.956;2023-02-04T12:18:40;2.80;;;1.50;;
67986;SDS011;54767;53.800;15.956;2023-02-04T12:21:09;2.20;;;1.50;;
67986;SDS011;54767;53.800;15.956;2023-02-04T12:23:37;3.10;;;1.80;;
67986;SDS011;54767;53.800;15.956;2023-02-04T12:26:06;4.80;;;3.80;;
67986;SDS011;54767;53.800;15.956;2023-02-04T12:28:35;2.20;;;1.50;;
67986;SDS011;54767;53.800;15.956;2023-02-04T12:31:03;3.40;;;1.80;;
67986;SDS011;54767;53.800;15.956;2023-02-04T12:33:32;5.20;;;1.90;;
67986;SDS011;54767;53.800;15.956;2023-02-04T12:36:00;1.40;;;1.30;;
67986;SDS011;54767;53.800;15.956;2023-02-04T12:38:28;2.30;;;1.60;;
67986;SDS011;54767;53.800;15.956;2023-02-04T12:40:56;3.00;;;1.60;;
67986;SDS011;54767;53.800;15.956;2023-02-04T12:43:25;3.50;;;1.30;;
67986;SDS011;54767;53.800;15.956;2023-02-04T12:48:23;1.70;;;1.60;;
67986;SDS011;54767;53.800;15.956;2023-02-04T12:50:53;3.60;;;2.40;;
67986;SDS011;54767;53.800;15.956;2023-02-04T12:53:21;5.00;;;2.50;;
67986;SDS011;54767;53.800;15.956;2023-02-04T12:55:49;3.90;;;2.10;;
67986;SDS011;54767;53.800;15.956;2023-02-04T12:58:18;2.00;;;1.90;;
67986;SDS011;54767;53.800;15.956;2023-02-04T13:00:46;3.60;;;2.20;;
67986;SDS011;54767;53.800;15.956;2023-02-04T13:03:15;2.00;;;1.90;;
67986;SDS011;54767;53.800;15.956;2023-02-04T13:05:43;2.60;;;2.20;;
67986;SDS011;54767;53.800;15.956;2023-02-04T13:08:12;2.50;;;1.70;;
67986;SDS011;54767;53.800;15.956;2023-02-04T13:10:40;1.50;;;0.80;;
67986;SDS011;54767;53.800;15.956;2023-02-04T13:13:09;5.30;;;1.60;;
67986;SDS011;54767;53.800;15.956;2023-02-04T13:15:38;1.70;;;1.20;;
67986;SDS011;54767;53.800;15.956;2023-02-04T13:18:06;2.00;;;1.30;;
67986;SDS011;54767;53.800;15.956;2023-02-04T13:20:35;2.50;;;1.40;;
67986;SDS011;54767;53.800;15.956;2023-02-04T13:23:03;5.00;;;1.70;;
67986;SDS011;54767;53.800;15.956;2023-02-04T13:25:32;2.20;;;1.50;;
67986;SDS011;54767;53.800;15.956;2023-02-04T13:28:01;1.30;;;1.10;;
67986;SDS011;54767;53.800;15.956;2023-02-04T13:30:29;11.00;;;4.60;;
67986;SDS011;54767;53.800;15.956;2023-02-04T13:33:00;12.20;;;4.70;;
67986;SDS011;54767;53.800;15.956;2023-02-04T13:35:30;30.10;;;11.10;;
67986;SDS011;54767;53.800;15.956;2023-02-04T13:37:59;21.50;;;7.90;;
67986;SDS011;54767;53.800;15.956;2023-02-04T13:40:31;18.20;;;6.30;;
67986;SDS011;54767;53.800;15.956;2023-02-04T13:43:00;18.20;;;6.60;;
67986;SDS011;54767;53.800;15.956;2023-02-04T13:45:29;34.80;;;12.80;;
67986;SDS011;54767;53.800;15.956;2023-02-04T13:47:59;38.00;;;15.70;;
67986;SDS011;54767;53.800;15.956;2023-02-04T13:50:30;29.10;;;13.90;;
67986;SDS011;54767;53.800;15.956;2023-02-04T13:52:59;11.10;;;6.60;;
67986;SDS011;54767;53.800;15.956;2023-02-04T13:55:28;11.40;;;7.20;;
67986;SDS011;54767;53.800;15.956;2023-02-04T13:57:56;5.10;;;3.00;;
67986;SDS011;54767;53.800;15.956;2023-02-04T14:00:24;3.90;;;2.80;;
67986;SDS011;54767;53.800;15.956;2023-02-04T14:02:54;6.10;;;3.00;;
67986;SDS011;54767;53.800;15.956;2023-02-04T14:05:23;4.40;;;2.90;;
67986;SDS011;54767;53.800;15.956;2023-02-04T14:07:52;9.60;;;4.90;;
67986;SDS011;54767;53.800;15.956;2023-02-04T14:10:20;9.20;;;4.80;;
67986;SDS011;54767;53.800;15.956;2023-02-04T14:12:51;6.60;;;3.40;;
67986;SDS011;54767;53.800;15.956;2023-02-04T14:15:20;6.40;;;3.40;;
67986;SDS011;54767;53.800;15.956;2023-02-04T14:17:48;3.60;;;3.00;;
67986;SDS011;54767;53.800;15.956;2023-02-04T14:20:17;1.60;;;1.40;;
67986;SDS011;54767;53.800;15.956;2023-02-04T14:22:46;2.20;;;2.00;;
67986;SDS011;54767;53.800;15.956;2023-02-04T14:25:15;3.20;;;1.50;;
67986;SDS011;54767;53.800;15.956;2023-02-04T14:27:44;1.30;;;0.90;;
67986;SDS011;54767;53.800;15.956;2023-02-04T14:32:46;0.90;;;0.80;;
67986;SDS011;54767;53.800;15.956;2023-02-04T14:35:16;2.30;;;1.30;;
67986;SDS011;54767;53.800;15.956;2023-02-04T14:37:45;2.60;;;1.50;;
67986;SDS011;54767;53.800;15.956;2023-02-04T14:40:14;2.50;;;1.20;;
67986;SDS011;54767;53.800;15.956;2023-02-04T14:42:44;2.40;;;0.90;;
67986;SDS011;54767;53.800;15.956;2023-02-04T14:45:13;3.90;;;1.30;;
67986;SDS011;54767;53.800;15.956;2023-02-04T14:47:42;2.00;;;1.50;;
67986;SDS011;54767;53.800;15.956;2023-02-04T14:50:13;7.50;;;3.30;;
67986;SDS011;54767;53.800;15.956;2023-02-04T14:52:43;4.50;;;2.70;;
67986;SDS011;54767;53.800;15.956;2023-02-04T14:55:11;4.90;;;2.20;;
67986;SDS011;54767;53.800;15.956;2023-02-04T14:57:41;4.50;;;2.40;;
67986;SDS011;54767;53.800;15.956;2023-02-04T15:00:09;3.00;;;1.90;;
67986;SDS011;54767;53.800;15.956;2023-02-04T15:02:38;2.60;;;1.80;;
67986;SDS011;54767;53.800;15.956;2023-02-04T15:05:08;2.20;;;1.60;;
67986;SDS011;54767;53.800;15.956;2023-02-04T15:07:36;3.20;;;1.30;;
67986;SDS011;54767;53.800;15.956;2023-02-04T15:10:06;3.20;;;2.10;;
67986;SDS011;54767;53.800;15.956;2023-02-04T15:12:36;5.50;;;2.70;;
67986;SDS011;54767;53.800;15.956;2023-02-04T15:15:05;3.20;;;2.20;;
67986;SDS011;54767;53.800;15.956;2023-02-04T15:17:34;3.40;;;2.60;;
67986;SDS011;54767;53.800;15.956;2023-02-04T15:20:02;13.50;;;6.80;;